createdAt,value
2019-02-25T00:02:28.957Z,50.68
2019-02-25T00:05:14.441Z,50.40
2019-02-25T00:08:00.556Z,51.31
2019-02-25T00:10:46.612Z,51.86
2019-02-25T00:13:32.868Z,51.05
2019-02-25T00:16:19.575Z,50.90
2019-02-25T00:19:05.367Z,51.03
2019-02-25T00:21:51.101Z,54.74
2019-02-25T00:24:37.696Z,54.74
2019-02-25T00:27:23.704Z,54.18
2019-02-25T00:30:09.744Z,53.40
2019-02-25T00:32:55.800Z,55.07
2019-02-25T00:35:42.888Z,56.62
2019-02-25T00:38:29.015Z,56.86
2019-02-25T00:41:15.113Z,55.26
2019-02-25T00:44:01.197Z,57.49
2019-02-25T00:46:47.763Z,58.62
2019-02-25T00:49:34.213Z,58.61
2019-02-25T00:52:19.951Z,58.34
2019-02-25T00:55:06.352Z,59.10
2019-02-25T00:57:52.234Z,59.35
2019-02-25T01:00:38.321Z,57.54
2019-02-25T01:03:24.631Z,60.29
2019-02-25T01:06:10.664Z,60.51
2019-02-25T01:08:56.686Z,61.22
2019-02-25T01:11:42.572Z,59.13
2019-02-25T01:14:28.974Z,59.13
2019-02-25T01:17:14.836Z,60.03
2019-02-25T01:20:00.915Z,61.02
2019-02-25T01:22:47.092Z,60.88
2019-02-25T01:25:33.093Z,60.16
2019-02-25T01:28:18.857Z,60.16
2019-02-25T01:31:05.393Z,59.48
2019-02-25T01:33:51.473Z,59.86
2019-02-25T01:36:37.659Z,58.64
2019-02-25T01:39:24.104Z,60.92
2019-02-25T01:42:10.209Z,61.22
2019-02-25T01:44:55.973Z,62.33
2019-02-25T01:47:42.432Z,61.74
2019-02-25T01:50:28.439Z,61.02
2019-02-25T01:53:14.250Z,59.58
2019-02-25T01:56:00.751Z,58.43
2019-02-25T01:58:46.609Z,59.51
2019-02-25T02:01:32.602Z,60.71
2019-02-25T02:04:18.989Z,60.71
2019-02-25T02:07:04.837Z,61.18
2019-02-25T02:09:51.136Z,63.10
2019-02-25T02:12:37.641Z,62.73
2019-02-25T02:15:23.628Z,62.30
2019-02-25T02:18:09.702Z,62.30
2019-02-25T02:20:55.876Z,63.87
2019-02-25T02:23:41.971Z,63.92
2019-02-25T02:26:28.161Z,63.92
2019-02-25T02:29:14.358Z,63.76
2019-02-25T02:32:00.339Z,63.84
2019-02-25T02:34:46.252Z,64.54
2019-02-25T02:37:32.148Z,63.89
2019-02-25T02:40:18.493Z,63.89
2019-02-25T02:43:05.014Z,65.16
2019-02-25T02:46:02.139Z,65.04
2019-02-25T02:48:51.691Z,65.04
2019-02-25T02:51:37.663Z,64.88
2019-02-25T02:54:23.424Z,66.13
2019-02-25T02:57:09.389Z,66.59
2019-02-25T02:59:55.929Z,66.83
2019-02-25T03:02:41.945Z,66.83
2019-02-25T03:05:27.757Z,66.50
2019-02-25T03:08:13.742Z,66.46
2019-02-25T03:10:59.918Z,65.89
2019-02-25T03:13:45.686Z,66.64
2019-02-25T03:16:32.217Z,66.64
2019-02-25T03:19:18.266Z,65.69
2019-02-25T03:22:04.219Z,67.12
2019-02-25T03:24:50.548Z,66.14
2019-02-25T03:27:37.193Z,66.17
2019-02-25T03:30:22.813Z,66.17
2019-02-25T03:33:09.574Z,68.65
2019-02-25T03:35:55.522Z,68.65
2019-02-25T03:38:41.461Z,66.93
2019-02-25T03:41:28.120Z,66.93
2019-02-25T03:44:14.180Z,67.64
2019-02-25T03:47:00.139Z,67.84
2019-02-25T03:49:46.454Z,67.60
2019-02-25T03:52:32.455Z,67.24
2019-02-25T03:55:18.333Z,66.82
2019-02-25T03:58:04.508Z,68.16
2019-02-25T04:00:50.632Z,67.85
2019-02-25T04:03:36.455Z,68.21
2019-02-25T04:06:22.934Z,68.09
2019-02-25T04:09:08.973Z,68.09
2019-02-25T04:11:54.925Z,67.75
2019-02-25T04:14:41.129Z,67.36
2019-02-25T04:17:26.975Z,67.36
2019-02-25T04:20:13.558Z,67.03
2019-02-25T04:22:59.788Z,65.44
2019-02-25T04:25:45.741Z,66.99
2019-02-25T04:28:31.702Z,68.78
2019-02-25T04:31:18.062Z,68.61
2019-02-25T04:34:03.990Z,68.61
2019-02-25T04:36:50.097Z,68.78
2019-02-25T04:39:36.394Z,68.52
2019-02-25T04:42:22.596Z,69.63
2019-02-25T04:45:11.350Z,69.30
2019-02-25T04:47:57.706Z,69.66
2019-02-25T04:50:43.354Z,69.06
2019-02-25T04:53:29.143Z,68.31
2019-02-25T04:56:15.600Z,68.53
2019-02-25T04:59:02.017Z,69.80
2019-02-25T05:01:47.804Z,69.50
2019-02-25T05:04:34.170Z,68.86
2019-02-25T05:07:20.022Z,67.59
2019-02-25T05:10:06.463Z,67.11
2019-02-25T05:13:00.338Z,67.33
2019-02-25T05:15:46.275Z,69.97
2019-02-25T05:18:32.325Z,70.02
2019-02-25T05:21:18.627Z,68.60
2019-02-25T05:24:04.846Z,68.93
2019-02-25T05:26:50.466Z,68.62
2019-02-25T05:29:36.701Z,68.14
2019-02-25T05:32:22.833Z,68.44
2019-02-25T05:35:09.178Z,67.57
2019-02-25T05:37:55.000Z,68.07
2019-02-25T05:40:41.633Z,68.34
2019-02-25T05:43:27.452Z,67.86
2019-02-25T05:46:13.869Z,69.14
2019-02-25T05:48:59.647Z,68.12
2019-02-25T05:51:45.519Z,67.25
2019-02-25T05:54:31.994Z,67.62
2019-02-25T05:57:17.987Z,69.09
2019-02-25T06:00:04.479Z,68.75
2019-02-25T06:02:51.129Z,72.24
2019-02-25T06:05:36.877Z,72.68
2019-02-25T06:08:22.772Z,71.65
2019-02-25T06:11:09.238Z,71.35
2019-02-25T06:13:55.374Z,71.84
2019-02-25T06:16:40.970Z,70.86
2019-02-25T06:19:28.924Z,70.65
2019-02-25T06:22:16.334Z,69.65
2019-02-25T06:25:02.122Z,70.57
2019-02-25T06:27:48.334Z,71.70
2019-02-25T06:30:34.782Z,71.80
2019-02-25T06:33:20.866Z,70.49
2019-02-25T06:36:07.143Z,69.56
2019-02-25T06:38:52.807Z,69.20
2019-02-25T06:41:38.731Z,68.99
2019-02-25T06:44:25.111Z,68.33
2019-02-25T06:47:11.015Z,68.33
2019-02-25T06:49:57.214Z,67.79
2019-02-25T06:52:43.563Z,67.35
2019-02-25T06:55:29.485Z,66.08
2019-02-25T06:58:15.498Z,64.84
2019-02-25T07:01:01.890Z,64.11
2019-02-25T07:04:07.215Z,63.29
2019-02-25T07:07:03.531Z,62.74
2019-02-25T07:10:18.014Z,60.62
2019-02-25T07:13:14.939Z,60.62
2019-02-25T07:16:18.710Z,58.75
2019-02-25T07:19:15.002Z,57.70
2019-02-25T07:22:16.073Z,57.03
2019-02-25T07:25:21.730Z,56.09
2019-02-25T07:28:36.753Z,54.90
2019-02-25T07:32:00.587Z,54.48
2019-02-25T07:34:56.907Z,53.04
2019-02-25T07:38:05.302Z,52.20
2019-02-25T07:41:09.199Z,52.01
2019-02-25T07:44:13.079Z,47.93
2019-02-25T07:47:17.079Z,48.01
2019-02-25T07:50:18.702Z,42.06
2019-02-25T07:53:18.019Z,40.88
2019-02-25T07:56:11.654Z,40.99
2019-02-25T07:59:12.201Z,37.77
2019-02-25T08:02:23.019Z,38.56
2019-02-25T08:05:46.584Z,37.15
2019-02-25T08:08:58.267Z,36.39
2019-02-25T08:12:06.579Z,36.01
2019-02-25T08:14:59.167Z,36.82
2019-02-25T08:18:10.363Z,34.51
2019-02-25T08:21:14.715Z,33.59
2019-02-25T08:24:18.675Z,32.95
2019-02-25T08:27:30.747Z,32.97
2019-02-25T08:30:42.100Z,32.84
2019-02-25T08:33:45.982Z,32.76
2019-02-25T08:37:18.063Z,30.58
2019-02-25T08:40:42.027Z,30.63
2019-02-25T08:43:35.221Z,29.93
2019-02-25T08:46:50.203Z,29.10
2019-02-25T08:50:01.768Z,31.12
2019-02-25T08:52:48.202Z,31.02
2019-02-25T08:55:37.661Z,27.87
2019-02-25T08:58:24.373Z,28.77
2019-02-25T09:01:10.420Z,30.72
2019-02-25T09:03:56.563Z,27.57
2019-02-25T09:06:42.519Z,26.73
2019-02-25T09:09:28.295Z,26.84
2019-02-25T09:12:14.690Z,28.74
2019-02-25T09:15:00.909Z,28.53
2019-02-25T09:17:47.794Z,26.89
2019-02-25T09:20:33.803Z,28.85
2019-02-25T09:23:19.774Z,32.85
2019-02-25T09:26:05.663Z,34.41
2019-02-25T09:28:52.283Z,33.46
2019-02-25T09:31:38.348Z,36.70
2019-02-25T09:34:25.077Z,38.75
2019-02-25T09:37:11.737Z,39.00
2019-02-25T09:39:57.291Z,37.60
2019-02-25T09:42:43.240Z,37.65
2019-02-25T09:45:30.463Z,34.76
2019-02-25T09:48:16.451Z,35.65
2019-02-25T09:51:02.715Z,33.49
2019-02-25T09:53:51.639Z,32.01
2019-02-25T09:59:29.223Z,35.69
2019-02-25T10:02:15.503Z,36.66
2019-02-25T10:05:01.396Z,34.11
2019-02-25T10:07:47.318Z,33.39
2019-02-25T10:10:33.416Z,32.21
2019-02-25T10:13:19.255Z,32.17
2019-02-25T10:16:05.099Z,30.51
2019-02-25T10:18:51.305Z,30.50
2019-02-25T10:21:37.340Z,29.45
2019-02-25T10:24:26.127Z,30.82
2019-02-25T10:27:12.792Z,29.83
2019-02-25T10:29:58.623Z,32.49
2019-02-25T10:32:44.592Z,32.56
2019-02-25T10:35:30.857Z,29.87
2019-02-25T10:38:16.652Z,30.79
2019-02-25T10:41:02.559Z,31.26
2019-02-25T10:43:49.995Z,31.53
2019-02-25T10:46:35.846Z,30.19
2019-02-25T10:49:22.562Z,29.33
2019-02-25T10:52:10.829Z,29.92
2019-02-25T10:54:58.283Z,28.12
2019-02-25T10:57:43.980Z,28.11
2019-02-25T11:00:30.338Z,29.69
2019-02-25T11:03:17.847Z,29.67
2019-02-25T11:06:04.391Z,30.02
2019-02-25T11:08:57.004Z,29.86
2019-02-25T11:11:42.786Z,31.02
2019-02-25T11:14:28.949Z,27.85
2019-02-25T11:17:16.158Z,28.80
2019-02-25T11:20:03.724Z,26.99
2019-02-25T11:22:50.000Z,27.30
2019-02-25T11:25:35.746Z,28.17
2019-02-25T11:28:25.365Z,26.24
2019-02-25T11:31:09.344Z,27.06
2019-02-25T11:33:56.446Z,27.59
2019-02-25T11:36:43.306Z,27.31
2019-02-25T11:39:30.118Z,28.17
2019-02-25T11:42:20.265Z,27.56
2019-02-25T11:45:05.765Z,29.24
2019-02-25T11:47:51.612Z,31.90
2019-02-25T11:50:37.533Z,29.54
2019-02-25T11:53:24.546Z,28.19
2019-02-25T11:56:10.760Z,29.36
2019-02-25T11:58:56.629Z,27.78
2019-02-25T12:01:42.201Z,26.88
2019-02-25T12:04:28.072Z,27.27
2019-02-25T12:07:13.960Z,26.48
2019-02-25T12:10:00.348Z,24.95
2019-02-25T12:12:45.939Z,23.02
2019-02-25T12:15:31.723Z,23.99
2019-02-25T12:18:17.756Z,26.12
2019-02-25T12:21:03.920Z,23.46
2019-02-25T12:23:49.672Z,24.95
2019-02-25T12:26:35.879Z,22.91
2019-02-25T12:29:21.839Z,23.49
2019-02-25T12:32:07.741Z,24.35
2019-02-25T12:34:53.649Z,24.21
2019-02-25T12:37:39.094Z,27.03
2019-02-25T12:40:24.543Z,26.51
2019-02-25T12:43:10.164Z,26.57
2019-02-25T12:45:56.084Z,25.36
2019-02-25T12:48:41.633Z,30.38
2019-02-25T12:51:27.343Z,30.36
2019-02-25T12:54:13.125Z,29.62
2019-02-25T12:56:59.304Z,30.62
2019-02-25T12:59:44.705Z,27.73
2019-02-25T13:02:30.105Z,29.28
2019-02-25T13:05:16.324Z,30.25
2019-02-25T13:08:01.870Z,27.50
2019-02-25T13:10:47.242Z,29.52
2019-02-25T13:13:32.965Z,30.29
2019-02-25T13:16:18.239Z,28.08
2019-02-25T13:19:03.581Z,26.50
2019-02-25T13:21:49.802Z,24.86
2019-02-25T13:24:37.263Z,25.46
2019-02-25T13:27:22.921Z,25.52
2019-02-25T13:30:11.554Z,29.76
2019-02-25T13:32:56.853Z,29.45
2019-02-25T13:35:42.265Z,29.27
2019-02-25T13:38:27.876Z,27.90
2019-02-25T13:41:13.499Z,25.55
2019-02-25T13:43:58.945Z,26.04
2019-02-25T13:46:44.823Z,28.77
2019-02-25T13:49:30.693Z,29.59
2019-02-25T13:52:16.089Z,28.23
2019-02-25T13:55:01.771Z,28.28
2019-02-25T13:57:47.275Z,26.37
2019-02-25T14:00:32.658Z,27.14
2019-02-25T14:03:18.550Z,27.54
2019-02-25T14:06:03.842Z,27.73
2019-02-25T14:08:49.252Z,26.72
2019-02-25T14:11:35.539Z,25.90
2019-02-25T14:14:21.090Z,27.04
2019-02-25T14:17:09.025Z,26.54
2019-02-25T14:19:54.879Z,27.44
2019-02-25T14:22:40.248Z,27.76
2019-02-25T14:25:28.414Z,27.88
2019-02-25T14:28:14.568Z,28.68
2019-02-25T14:30:59.998Z,28.73
2019-02-25T14:33:45.962Z,29.01
2019-02-25T14:36:31.534Z,29.23
2019-02-25T14:39:24.968Z,27.82
2019-02-25T14:42:11.915Z,27.88
2019-02-25T14:44:58.576Z,27.06
2019-02-25T14:47:46.720Z,27.43
2019-02-25T14:50:32.092Z,26.61
2019-02-25T14:53:17.612Z,26.62
2019-02-25T14:56:04.173Z,27.55
2019-02-25T14:58:49.790Z,27.92
2019-02-25T15:01:35.279Z,28.21
2019-02-25T15:04:20.862Z,28.85
2019-02-25T15:07:09.135Z,29.38
2019-02-25T15:09:57.938Z,30.66
2019-02-25T15:12:43.551Z,31.25
2019-02-25T15:15:31.493Z,33.10
2019-02-25T15:18:17.258Z,32.22
2019-02-25T15:21:04.737Z,32.61
2019-02-25T15:23:51.978Z,32.98
2019-02-25T15:26:42.998Z,33.27
2019-02-25T15:29:25.210Z,33.88
2019-02-25T15:32:10.502Z,33.89
2019-02-25T15:34:57.255Z,34.39
2019-02-25T15:37:44.889Z,33.44
2019-02-25T15:40:32.939Z,32.74
2019-02-25T15:43:21.286Z,34.53
2019-02-25T15:46:07.168Z,34.49
2019-02-25T15:48:52.642Z,35.32
2019-02-25T15:51:41.119Z,34.77
2019-02-25T15:54:30.878Z,34.72
2019-02-25T15:57:15.120Z,33.63
2019-02-25T16:00:00.724Z,34.18
2019-02-25T16:02:48.548Z,34.03
2019-02-25T16:05:34.764Z,34.69
2019-02-25T16:08:23.583Z,33.48
2019-02-25T16:11:09.862Z,35.82
2019-02-25T16:13:56.230Z,35.75
2019-02-25T16:16:43.342Z,34.29
2019-02-25T16:19:40.556Z,34.16
2019-02-25T16:22:16.682Z,34.29
2019-02-25T16:25:03.017Z,34.73
2019-02-25T16:27:54.281Z,35.34
2019-02-25T16:30:41.762Z,35.08
2019-02-25T16:33:28.307Z,34.69
2019-02-25T16:36:14.888Z,36.12
2019-02-25T16:39:05.241Z,35.33
2019-02-25T16:41:47.900Z,35.36
2019-02-25T16:44:33.807Z,37.23
2019-02-25T16:47:32.004Z,36.46
2019-02-25T16:50:07.505Z,37.67
2019-02-25T16:52:53.402Z,37.69
2019-02-25T16:55:40.516Z,39.64
2019-02-25T16:58:27.593Z,41.54
2019-02-25T17:01:14.118Z,41.71
2019-02-25T17:03:59.770Z,44.41
2019-02-25T17:06:45.467Z,44.62
2019-02-25T17:09:32.038Z,43.20
2019-02-25T17:12:21.089Z,43.74
2019-02-25T17:15:09.976Z,44.26
2019-02-25T17:17:58.314Z,44.55
2019-02-25T17:20:45.096Z,47.89
2019-02-25T17:23:32.311Z,47.62
2019-02-25T17:26:19.633Z,46.93
2019-02-25T17:29:05.379Z,47.34
2019-02-25T17:31:52.724Z,48.77
2019-02-25T17:34:39.390Z,49.70
2019-02-25T17:37:26.702Z,50.28
2019-02-25T17:40:13.358Z,48.68
2019-02-25T17:42:58.855Z,50.20
2019-02-25T17:45:44.838Z,51.32
2019-02-25T17:48:31.177Z,52.28
2019-02-25T17:51:18.451Z,51.92
2019-02-25T17:54:05.811Z,50.61
2019-02-25T17:56:52.002Z,50.37
2019-02-25T17:59:39.193Z,52.69
2019-02-25T18:02:29.197Z,52.18
2019-02-25T18:05:16.894Z,54.69
2019-02-25T18:08:05.328Z,54.02
2019-02-25T18:10:52.258Z,56.20
2019-02-25T18:13:39.607Z,56.38
2019-02-25T18:16:24.990Z,56.15
2019-02-25T18:19:11.708Z,56.36
2019-02-25T18:21:58.931Z,56.26
2019-02-25T18:24:44.424Z,56.29
2019-02-25T18:27:29.855Z,55.60
2019-02-25T18:30:17.135Z,56.13
2019-02-25T18:33:05.159Z,57.00
2019-02-25T18:35:50.387Z,58.54
2019-02-25T18:38:35.998Z,58.76
2019-02-25T18:41:23.171Z,58.26
2019-02-25T18:44:10.884Z,58.21
2019-02-25T18:46:56.907Z,58.36
2019-02-25T18:49:42.614Z,58.61
2019-02-25T18:52:29.561Z,58.50
2019-02-25T18:55:17.147Z,57.86
2019-02-25T18:58:05.065Z,58.04
2019-02-25T19:00:52.196Z,57.69
2019-02-25T19:03:38.650Z,59.79
2019-02-25T19:06:25.623Z,59.13
2019-02-25T19:09:22.775Z,61.21
2019-02-25T19:12:10.687Z,61.60
2019-02-25T19:14:57.679Z,60.24
2019-02-25T19:17:45.754Z,59.41
2019-02-25T19:20:31.900Z,59.65
2019-02-25T19:23:17.582Z,62.23
2019-02-25T19:26:03.220Z,62.43
2019-02-25T19:28:50.195Z,62.86
2019-02-25T19:31:36.936Z,63.99
2019-02-25T19:34:23.241Z,63.81
2019-02-25T19:37:12.046Z,61.79
2019-02-25T19:39:57.559Z,61.67
2019-02-25T19:42:47.302Z,63.65
2019-02-25T19:45:30.766Z,62.70
2019-02-25T19:48:19.242Z,63.78
2019-02-25T19:51:06.234Z,63.17
2019-02-25T19:53:51.896Z,62.86
2019-02-25T19:56:37.751Z,63.22
2019-02-25T19:59:26.853Z,62.85
2019-02-25T20:02:13.881Z,62.98
2019-02-25T20:05:00.667Z,64.31
2019-02-25T20:07:47.586Z,64.40
2019-02-25T20:10:34.133Z,64.45
2019-02-25T20:13:22.303Z,63.81
2019-02-25T20:16:20.409Z,62.91
2019-02-25T20:19:06.799Z,62.33
2019-02-25T20:21:54.613Z,62.73
2019-02-25T20:24:44.144Z,62.51
2019-02-25T20:27:30.229Z,63.51
2019-02-25T20:30:16.381Z,63.21
2019-02-25T20:33:03.319Z,64.07
2019-02-25T20:35:53.062Z,64.96
2019-02-25T20:38:37.754Z,64.53
2019-02-25T20:41:27.130Z,63.30
2019-02-25T20:44:14.453Z,62.34
2019-02-25T20:47:01.957Z,64.01
2019-02-25T20:49:51.509Z,64.89
2019-02-25T20:52:40.419Z,64.49
2019-02-25T20:55:27.673Z,64.46
2019-02-25T20:58:16.217Z,65.03
2019-02-25T21:01:05.272Z,64.17
2019-02-25T21:03:51.055Z,64.13
2019-02-25T21:06:39.180Z,65.37
2019-02-25T21:09:25.587Z,65.18
2019-02-25T21:12:13.244Z,65.94
2019-02-25T21:14:59.126Z,64.67
2019-02-25T21:17:45.288Z,64.93
2019-02-25T21:20:31.489Z,66.28
2019-02-25T21:23:17.317Z,66.71
2019-02-25T21:26:06.305Z,65.96
2019-02-25T21:28:56.055Z,65.67
2019-02-25T21:31:43.137Z,65.44
2019-02-25T21:34:29.170Z,65.95
2019-02-25T21:37:15.594Z,65.66
2019-02-25T21:40:03.388Z,65.91
2019-02-25T21:42:51.254Z,65.70
2019-02-25T21:45:36.340Z,64.90
2019-02-25T21:48:25.064Z,66.30
2019-02-25T21:51:11.868Z,65.80
2019-02-25T21:53:58.092Z,66.02
2019-02-25T21:56:44.747Z,65.51
2019-02-25T21:59:32.232Z,65.19
2019-02-25T22:02:17.683Z,66.28
2019-02-25T22:05:07.917Z,65.05
2019-02-25T22:07:54.492Z,64.26
2019-02-25T22:10:42.042Z,66.75
2019-02-25T22:13:27.906Z,65.70
2019-02-25T22:16:13.563Z,64.11
2019-02-25T22:18:58.930Z,65.57
2019-02-25T22:21:45.138Z,65.89
2019-02-25T22:24:32.081Z,66.34
2019-02-25T22:27:18.910Z,66.50
2019-02-25T22:30:09.187Z,66.86
2019-02-25T22:32:55.124Z,66.35
2019-02-25T22:35:42.482Z,66.24
2019-02-25T22:38:28.243Z,67.11
2019-02-25T22:41:13.715Z,67.72
2019-02-25T22:43:59.967Z,68.21
2019-02-25T22:46:46.783Z,68.34
2019-02-25T22:49:32.555Z,67.00
2019-02-25T22:52:21.895Z,67.00
2019-02-25T22:55:09.865Z,67.26
2019-02-25T22:57:54.242Z,65.98
2019-02-25T23:00:51.570Z,66.66
2019-02-25T23:03:40.970Z,66.74
2019-02-25T23:06:25.477Z,66.15
2019-02-25T23:09:14.145Z,65.94
2019-02-25T23:11:59.746Z,65.94
2019-02-25T23:14:45.162Z,65.89
2019-02-25T23:17:33.060Z,66.00
2019-02-25T23:20:18.217Z,66.00
2019-02-25T23:23:06.519Z,65.42
2019-02-25T23:25:53.262Z,65.27
2019-02-25T23:28:38.987Z,65.87
2019-02-25T23:31:24.848Z,65.93
2019-02-25T23:34:12.672Z,65.94
2019-02-25T23:36:57.931Z,66.47
2019-02-25T23:39:44.846Z,65.89
2019-02-25T23:42:33.000Z,65.52
2019-02-25T23:45:20.476Z,65.29
2019-02-25T23:48:06.338Z,66.27
2019-02-25T23:50:54.956Z,66.27
2019-02-25T23:53:40.502Z,66.17
2019-02-25T23:56:27.429Z,66.17
2019-02-25T23:59:14.817Z,64.60
